createdAt,value
2022-08-02T00:02:45.572Z,1.20
2022-08-02T00:05:40.235Z,1.02
2022-08-02T00:08:42.374Z,0.95
2022-08-02T00:11:24.682Z,0.82
2022-08-02T00:14:28.301Z,1.20
2022-08-02T00:17:11.716Z,1.20
2022-08-02T00:19:51.392Z,0.90
2022-08-02T00:22:28.995Z,0.73
2022-08-02T00:25:28.295Z,0.88
2022-08-02T00:28:23.327Z,0.82
2022-08-02T00:31:14.863Z,0.77
2022-08-02T00:34:27.462Z,0.93
2022-08-02T00:40:00.509Z,0.85
2022-08-02T00:42:42.683Z,1.45
2022-08-02T00:48:21.477Z,0.88
2022-08-02T00:51:03.309Z,0.80
2022-08-02T00:56:50.021Z,0.75
2022-08-02T00:59:30.017Z,0.90
2022-08-02T01:02:12.557Z,0.70
2022-08-02T01:04:56.541Z,0.73
2022-08-02T01:07:37.185Z,0.95
2022-08-02T01:13:36.528Z,0.90
2022-08-02T01:16:26.532Z,0.80
2022-08-02T01:19:55.788Z,0.70
2022-08-02T01:23:25.825Z,0.90
2022-08-02T01:26:52.155Z,1.10
2022-08-02T01:29:49.981Z,1.17
2022-08-02T01:32:51.819Z,1.40
2022-08-02T01:35:50.479Z,0.95
2022-08-02T01:39:26.944Z,0.90
2022-08-02T01:42:30.207Z,0.88
2022-08-02T01:45:15.977Z,1.02
2022-08-02T01:47:53.933Z,0.75
2022-08-02T01:50:35.802Z,0.93
2022-08-02T01:53:40.334Z,0.98
2022-08-02T01:56:26.826Z,0.77
2022-08-02T01:59:09.211Z,0.80
2022-08-02T02:02:19.786Z,1.10
2022-08-02T02:08:29.689Z,0.95
2022-08-02T02:12:05.224Z,1.10
2022-08-02T02:14:55.249Z,1.08
2022-08-02T02:24:05.891Z,1.10
2022-08-02T02:27:04.027Z,0.90
2022-08-02T02:30:06.002Z,1.20
2022-08-02T02:33:14.482Z,1.00
2022-08-02T02:36:29.748Z,0.98
2022-08-02T02:42:54.118Z,1.02
2022-08-02T02:45:51.719Z,1.00
2022-08-02T02:49:06.237Z,1.35
2022-08-02T02:55:06.945Z,1.00
2022-08-02T02:58:20.982Z,1.00
2022-08-02T03:01:56.639Z,1.00
2022-08-02T03:05:05.721Z,1.10
2022-08-02T03:07:54.620Z,0.90
2022-08-02T03:10:52.424Z,1.05
2022-08-02T03:13:37.565Z,1.00
2022-08-02T03:16:21.522Z,0.90
2022-08-02T03:19:15.129Z,0.90
2022-08-02T03:22:05.892Z,0.93
2022-08-02T03:31:08.178Z,0.82
2022-08-02T03:33:52.153Z,0.88
2022-08-02T03:37:00.519Z,0.70
2022-08-02T03:40:09.386Z,0.95
2022-08-02T03:42:54.510Z,0.70
2022-08-02T03:45:58.311Z,0.60
2022-08-02T03:48:38.525Z,0.80
2022-08-02T03:51:16.562Z,0.70
2022-08-02T03:54:07.172Z,0.70
2022-08-02T03:56:51.253Z,0.70
2022-08-02T03:59:31.974Z,0.70
2022-08-02T04:02:24.013Z,0.70
2022-08-02T04:05:08.024Z,0.70
2022-08-02T04:08:35.513Z,0.82
2022-08-02T04:11:37.061Z,0.75
2022-08-02T04:14:26.096Z,0.80
2022-08-02T04:17:35.294Z,0.80
2022-08-02T04:21:07.558Z,0.68
2022-08-02T04:24:06.857Z,0.52
2022-08-02T04:27:49.821Z,0.60
2022-08-02T04:30:30.355Z,0.50
2022-08-02T04:33:42.001Z,0.60
2022-08-02T04:36:31.080Z,0.80
2022-08-02T04:39:25.595Z,0.85
2022-08-02T04:42:14.307Z,0.60
2022-08-02T04:45:00.050Z,0.70
2022-08-02T04:48:02.155Z,0.60
2022-08-02T04:50:51.450Z,0.70
2022-08-02T04:53:32.560Z,0.73
2022-08-02T04:56:15.224Z,0.70
2022-08-02T04:59:08.590Z,0.70
2022-08-02T05:01:49.474Z,0.70
2022-08-02T05:04:30.383Z,0.60
2022-08-02T05:07:10.147Z,0.70
2022-08-02T05:10:18.200Z,0.70
2022-08-02T05:12:57.481Z,0.60
2022-08-02T05:15:51.401Z,0.63
2022-08-02T05:18:34.977Z,0.70
2022-08-02T05:24:06.756Z,0.70
2022-08-02T05:26:43.180Z,0.60
2022-08-02T05:32:47.758Z,0.68
2022-08-02T05:35:52.723Z,0.80
2022-08-02T05:38:50.077Z,1.00
2022-08-02T05:41:43.127Z,0.90
2022-08-02T05:44:24.645Z,0.80
2022-08-02T05:47:10.298Z,0.80
2022-08-02T05:49:56.362Z,0.90
2022-08-02T05:53:28.935Z,0.80
2022-08-02T05:56:45.132Z,0.82
2022-08-02T06:00:02.854Z,0.90
2022-08-02T06:03:44.520Z,0.90
2022-08-02T06:06:45.232Z,0.98
2022-08-02T06:09:33.141Z,0.80
2022-08-02T06:13:04.084Z,0.93
2022-08-02T06:15:53.184Z,0.90
2022-08-02T06:19:08.943Z,0.90
2022-08-02T06:24:53.207Z,0.70
2022-08-02T06:31:06.108Z,0.70
2022-08-02T06:33:48.968Z,0.73
2022-08-02T06:36:53.802Z,0.70
2022-08-02T06:40:11.031Z,0.70
2022-08-02T06:43:34.829Z,0.70
2022-08-02T06:46:53.844Z,0.80
2022-08-02T06:49:51.547Z,0.80
2022-08-02T06:52:37.824Z,0.90
2022-08-02T06:55:43.697Z,0.63
2022-08-02T06:58:53.170Z,0.70
2022-08-02T07:01:42.387Z,0.70
2022-08-02T07:04:30.429Z,0.70
2022-08-02T07:10:21.688Z,0.88
2022-08-02T07:13:20.874Z,0.63
2022-08-02T07:16:16.407Z,1.10
2022-08-02T07:19:06.434Z,0.95
2022-08-02T07:21:56.443Z,1.00
2022-08-02T07:25:02.515Z,0.70
2022-08-02T07:27:42.897Z,1.08
2022-08-02T07:30:23.906Z,0.77
2022-08-02T07:33:05.849Z,1.30
2022-08-02T07:36:22.778Z,0.90
2022-08-02T07:39:23.286Z,1.05
2022-08-02T07:42:47.236Z,0.90
2022-08-02T07:45:31.459Z,1.00
2022-08-02T07:48:35.974Z,0.90
2022-08-02T07:54:34.902Z,1.20
2022-08-02T08:00:31.183Z,1.20
2022-08-02T08:03:31.812Z,1.20
2022-08-02T08:06:28.539Z,1.17
2022-08-02T08:09:58.932Z,1.25
2022-08-02T08:12:37.905Z,1.10
2022-08-02T08:15:19.981Z,1.10
2022-08-02T08:18:01.963Z,1.20
2022-08-02T08:21:23.352Z,1.25
2022-08-02T08:24:18.294Z,1.13
2022-08-02T08:27:00.281Z,1.17
2022-08-02T08:30:01.511Z,1.10
2022-08-02T08:35:58.568Z,1.52
2022-08-02T08:41:33.935Z,1.40
2022-08-02T08:44:15.764Z,1.20
2022-08-02T08:46:59.884Z,1.30
2022-08-02T08:50:05.998Z,1.58
2022-08-02T08:56:20.018Z,1.60
2022-08-02T08:59:27.104Z,2.40
2022-08-02T09:02:20.306Z,2.15
2022-08-02T09:05:12.915Z,1.92
2022-08-02T09:11:05.049Z,1.77
2022-08-02T09:14:05.524Z,1.77
2022-08-02T09:17:18.938Z,1.52
2022-08-02T09:23:19.915Z,2.75
2022-08-02T09:26:07.798Z,2.20
2022-08-02T09:29:12.241Z,1.90
2022-08-02T09:31:51.131Z,1.70
2022-08-02T09:34:56.196Z,1.75
2022-08-02T09:37:48.698Z,1.90
2022-08-02T09:40:47.667Z,1.83
2022-08-02T09:44:03.611Z,1.83
2022-08-02T09:47:31.039Z,1.80
2022-08-02T09:50:15.111Z,1.70
2022-08-02T09:56:33.925Z,1.50
2022-08-02T10:02:41.131Z,1.85
2022-08-02T10:06:02.555Z,1.70
2022-08-02T10:09:01.264Z,2.30
2022-08-02T10:11:39.577Z,1.67
2022-08-02T10:14:34.298Z,2.60
2022-08-02T10:17:38.626Z,2.00
2022-08-02T10:20:21.633Z,1.58
2022-08-02T10:23:11.145Z,1.33
2022-08-02T10:25:56.670Z,2.13
2022-08-02T10:29:04.506Z,2.42
2022-08-02T10:32:06.513Z,2.25
2022-08-02T10:35:18.397Z,1.73
2022-08-02T10:41:09.867Z,1.98
2022-08-02T10:44:01.796Z,1.70
2022-08-02T10:46:45.563Z,1.40
2022-08-02T10:49:39.729Z,1.52
2022-08-02T10:52:50.264Z,1.08
2022-08-02T10:59:17.866Z,1.30
2022-08-02T11:01:55.089Z,1.00
2022-08-02T11:05:43.844Z,1.00
2022-08-02T11:08:40.696Z,1.00
2022-08-02T11:12:19.401Z,1.10
2022-08-02T11:15:15.634Z,0.90
2022-08-02T11:18:10.664Z,0.85
2022-08-02T11:21:13.440Z,0.80
2022-08-02T11:24:33.922Z,1.00
2022-08-02T11:27:38.754Z,0.90
2022-08-02T11:30:26.690Z,0.88
2022-08-02T11:34:36.565Z,1.00
2022-08-02T11:37:15.905Z,1.00
2022-08-02T11:40:04.164Z,0.80
2022-08-02T11:43:03.985Z,1.05
2022-08-02T11:45:52.703Z,0.95
2022-08-02T11:48:45.134Z,1.10
2022-08-02T11:51:49.218Z,0.82
2022-08-02T11:54:51.813Z,1.73
2022-08-02T11:57:29.499Z,1.08
2022-08-02T12:00:34.940Z,1.20
2022-08-02T12:03:19.917Z,0.82
2022-08-02T12:06:16.592Z,0.73
2022-08-02T12:09:40.873Z,0.90
2022-08-02T12:12:59.957Z,1.10
2022-08-02T12:16:26.510Z,1.17
2022-08-02T12:19:50.377Z,1.15
2022-08-02T12:22:45.895Z,1.00
2022-08-02T12:28:24.731Z,1.20
2022-08-02T12:31:06.877Z,2.30
2022-08-02T12:33:58.311Z,1.00
2022-08-02T12:36:48.850Z,1.00
2022-08-02T12:39:48.451Z,1.00
2022-08-02T12:42:28.161Z,1.20
2022-08-02T12:46:04.128Z,1.13
2022-08-02T12:49:17.264Z,1.00
2022-08-02T12:52:11.566Z,1.13
2022-08-02T12:58:27.528Z,1.15
2022-08-02T13:01:06.362Z,1.08
2022-08-02T13:04:11.734Z,1.00
2022-08-02T13:06:57.648Z,0.85
2022-08-02T13:10:02.811Z,0.68
2022-08-02T13:13:07.358Z,0.70
2022-08-02T13:15:55.281Z,1.10
2022-08-02T13:22:02.193Z,0.90
2022-08-02T13:25:24.002Z,0.80
2022-08-02T13:31:36.963Z,0.80
2022-08-02T13:34:21.142Z,0.90
2022-08-02T13:36:59.218Z,0.85
2022-08-02T13:39:51.485Z,0.85
2022-08-02T13:42:46.488Z,0.90
2022-08-02T13:46:09.409Z,0.80
2022-08-02T13:49:15.043Z,0.80
2022-08-02T13:52:22.013Z,0.90
2022-08-02T13:55:14.318Z,0.77
2022-08-02T13:58:23.578Z,0.70
2022-08-02T14:01:38.726Z,0.60
2022-08-02T14:05:01.957Z,0.80
2022-08-02T14:14:16.677Z,0.60
2022-08-02T14:17:27.038Z,0.60
2022-08-02T14:20:35.548Z,0.82
2022-08-02T14:23:49.730Z,0.70
2022-08-02T14:26:30.132Z,0.80
2022-08-02T14:29:08.271Z,0.70
2022-08-02T14:34:55.304Z,0.60
2022-08-02T14:37:56.668Z,0.75
2022-08-02T14:44:16.506Z,0.70
2022-08-02T14:47:20.743Z,0.70
2022-08-02T14:50:03.502Z,0.68
2022-08-02T14:52:43.048Z,0.60
2022-08-02T14:55:46.464Z,0.75
2022-08-02T14:58:47.377Z,0.60
2022-08-02T15:01:52.075Z,0.80
2022-08-02T15:04:42.959Z,0.70
2022-08-02T15:07:23.920Z,0.60
2022-08-02T15:10:35.497Z,0.75
2022-08-02T15:13:40.846Z,0.60
2022-08-02T15:16:59.117Z,0.70
2022-08-02T15:20:11.306Z,0.60
2022-08-02T15:23:08.305Z,0.60
2022-08-02T15:26:38.201Z,0.60
2022-08-02T15:29:16.324Z,0.70
2022-08-02T15:32:09.776Z,0.47
2022-08-02T15:35:08.761Z,0.70
2022-08-02T15:37:56.805Z,0.50
2022-08-02T15:40:52.969Z,0.60
2022-08-02T15:44:00.314Z,0.60
2022-08-02T15:46:48.721Z,0.50
2022-08-02T15:49:41.758Z,0.40
2022-08-02T15:52:25.718Z,0.55
2022-08-02T15:55:06.746Z,0.47
2022-08-02T15:58:07.619Z,0.50
2022-08-02T16:01:37.443Z,0.50
2022-08-02T16:04:38.153Z,0.60
2022-08-02T16:07:25.929Z,0.55
2022-08-02T16:10:18.498Z,0.50
2022-08-02T16:13:19.135Z,0.70
2022-08-02T16:16:05.194Z,0.47
2022-08-02T16:19:46.775Z,0.40
2022-08-02T16:22:03.799Z,0.45
2022-08-02T16:24:49.309Z,0.60
2022-08-02T16:28:07.056Z,0.50
2022-08-02T16:34:25.983Z,0.35
2022-08-02T16:40:32.666Z,0.60
2022-08-02T16:43:35.462Z,0.50
2022-08-02T16:46:33.327Z,0.35
2022-08-02T16:50:04.224Z,0.50
2022-08-02T16:52:19.574Z,0.50
2022-08-02T16:55:17.657Z,0.50
2022-08-02T16:58:20.716Z,0.43
2022-08-02T17:01:01.619Z,0.55
2022-08-02T17:03:56.631Z,0.60
2022-08-02T17:06:52.053Z,0.50
2022-08-02T17:10:01.792Z,0.50
2022-08-02T17:12:51.482Z,0.50
2022-08-02T17:16:15.902Z,0.50
2022-08-02T17:18:51.020Z,0.50
2022-08-02T17:21:29.184Z,0.55
2022-08-02T17:24:24.781Z,0.50
2022-08-02T17:27:11.071Z,0.50
2022-08-02T17:29:57.540Z,0.40
2022-08-02T17:32:49.016Z,0.50
2022-08-02T17:35:43.823Z,0.60
2022-08-02T17:38:27.507Z,0.60
2022-08-02T17:41:15.398Z,0.50
2022-08-02T17:43:53.481Z,0.50
2022-08-02T17:46:43.678Z,0.50
2022-08-02T17:52:51.279Z,0.40
2022-08-02T17:55:52.535Z,0.50
2022-08-02T17:58:38.138Z,0.50
2022-08-02T18:05:11.745Z,0.60
2022-08-02T18:12:48.141Z,0.40
2022-08-02T18:15:19.999Z,0.50
2022-08-02T18:18:16.823Z,0.50
2022-08-02T18:21:22.721Z,0.60
2022-08-02T18:24:06.981Z,0.70
2022-08-02T18:27:24.283Z,0.45
2022-08-02T18:30:23.141Z,0.68
2022-08-02T18:33:54.329Z,0.50
2022-08-02T18:37:10.861Z,0.50
2022-08-02T18:39:56.437Z,0.40
2022-08-02T18:42:45.039Z,0.68
2022-08-02T18:46:07.218Z,0.60
2022-08-02T18:48:53.667Z,0.50
2022-08-02T18:51:53.220Z,0.50
2022-08-02T18:58:20.530Z,0.85
2022-08-02T19:07:12.502Z,0.50
2022-08-02T19:10:24.912Z,0.50
2022-08-02T19:13:42.656Z,0.50
2022-08-02T19:16:44.377Z,0.50
2022-08-02T19:20:03.976Z,0.50
2022-08-02T19:22:53.541Z,0.57
2022-08-02T20:14:04.845Z,0.50
2022-08-02T20:17:04.698Z,0.55
2022-08-02T20:19:52.319Z,0.60
2022-08-02T20:22:35.783Z,0.50
2022-08-02T20:25:15.939Z,0.60
2022-08-02T20:28:14.410Z,0.70
2022-08-02T20:31:18.264Z,0.60
2022-08-02T20:34:00.847Z,0.55
2022-08-02T20:36:42.143Z,0.70
2022-08-02T20:39:42.660Z,0.88
2022-08-02T20:45:16.645Z,0.70
2022-08-02T20:48:17.326Z,0.70
2022-08-02T20:51:09.611Z,0.90
2022-08-02T20:54:10.014Z,0.80
2022-08-02T20:57:09.032Z,0.80
2022-08-02T20:59:51.938Z,0.80
2022-08-02T21:02:52.507Z,0.75
2022-08-02T21:09:03.341Z,0.73
2022-08-02T21:14:59.650Z,0.80
2022-08-02T21:17:59.749Z,0.75
2022-08-02T21:20:50.167Z,0.70
2022-08-02T21:23:36.544Z,0.82
2022-08-02T21:26:19.725Z,0.70
2022-08-02T21:29:17.118Z,0.70
2022-08-02T21:31:59.656Z,0.70
2022-08-02T21:34:44.544Z,0.70
2022-08-02T21:37:32.971Z,0.60
2022-08-02T21:40:30.218Z,0.75
2022-08-02T21:43:06.001Z,1.08
2022-08-02T21:46:07.452Z,0.90
2022-08-02T21:50:09.186Z,0.73
2022-08-02T21:52:25.980Z,1.02
2022-08-02T21:55:24.417Z,0.70
2022-08-02T21:58:35.503Z,0.80
2022-08-02T22:01:21.290Z,0.77
2022-08-02T22:04:00.532Z,0.77
2022-08-02T22:06:40.347Z,0.68
2022-08-02T22:09:43.024Z,0.75
2022-08-02T22:12:18.999Z,0.75
2022-08-02T22:14:56.467Z,0.90
2022-08-02T22:17:50.920Z,0.70
2022-08-02T22:20:35.365Z,0.95
2022-08-02T22:23:13.254Z,0.75
2022-08-02T22:25:59.694Z,0.68
2022-08-02T22:28:50.475Z,0.70
2022-08-02T22:31:41.338Z,0.80
2022-08-02T22:34:36.815Z,0.82
2022-08-02T22:38:16.865Z,1.00
2022-08-02T22:40:15.968Z,0.85
2022-08-02T22:42:55.725Z,0.90
2022-08-02T22:45:37.449Z,1.00
2022-08-02T22:48:14.707Z,0.90
2022-08-02T22:50:54.684Z,0.90
2022-08-02T22:53:35.574Z,0.90
2022-08-02T22:56:13.629Z,1.00
2022-08-02T22:59:01.820Z,0.85
2022-08-02T23:01:52.088Z,0.80
2022-08-02T23:04:30.903Z,1.08
2022-08-02T23:07:07.983Z,1.10
2022-08-02T23:09:45.616Z,0.80
2022-08-02T23:12:22.114Z,0.80
2022-08-02T23:15:02.088Z,0.80
2022-08-02T23:17:56.239Z,0.70
2022-08-02T23:20:38.073Z,0.68
2022-08-02T23:23:18.530Z,0.80
2022-08-02T23:25:55.591Z,0.80
2022-08-02T23:28:36.788Z,0.70
2022-08-02T23:31:32.261Z,0.80
2022-08-02T23:34:09.249Z,1.10
2022-08-02T23:36:45.388Z,0.98
2022-08-02T23:39:22.566Z,0.80
2022-08-02T23:42:01.824Z,0.80
2022-08-02T23:44:38.636Z,1.00
2022-08-02T23:47:18.567Z,1.00
2022-08-02T23:49:57.651Z,0.80
2022-08-02T23:52:34.002Z,0.80
2022-08-02T23:55:11.217Z,0.90
2022-08-02T23:57:48.189Z,0.80
